sensor_id;sensor_type;location;lat;lon;timestamp;P1;durP1;ratioP1;P2;durP2;ratioP2
34459;SDS011;20704;51.260;22.558;2024-03-23T00:55:36;29.35;;;16.25;;
34459;SDS011;20704;51.260;22.558;2024-03-23T00:57:37;30.90;;;16.90;;
34459;SDS011;20704;51.260;22.558;2024-03-23T00:59:39;25.08;;;14.93;;
34459;SDS011;20704;51.260;22.558;2024-03-23T01:01:41;30.70;;;15.55;;
34459;SDS011;20704;51.260;22.558;2024-03-23T01:03:43;28.65;;;16.55;;
34459;SDS011;20704;51.260;22.558;2024-03-23T01:05:44;30.08;;;15.20;;
34459;SDS011;20704;51.260;22.558;2024-03-23T01:07:46;31.05;;;16.08;;
34459;SDS011;20704;51.260;22.558;2024-03-23T01:09:47;29.27;;;16.00;;
34459;SDS011;20704;51.260;22.558;2024-03-23T01:11:49;33.22;;;16.40;;
34459;SDS011;20704;51.260;22.558;2024-03-23T01:13:51;31.10;;;15.75;;
34459;SDS011;20704;51.260;22.558;2024-03-23T01:15:56;35.83;;;16.35;;
34459;SDS011;20704;51.260;22.558;2024-03-23T01:17:58;28.48;;;16.08;;
34459;SDS011;20704;51.260;22.558;2024-03-23T01:20:00;32.92;;;16.58;;
34459;SDS011;20704;51.260;22.558;2024-03-23T01:22:01;31.83;;;16.48;;
34459;SDS011;20704;51.260;22.558;2024-03-23T01:24:03;28.73;;;16.05;;
34459;SDS011;20704;51.260;22.558;2024-03-23T01:26:05;31.75;;;16.92;;
34459;SDS011;20704;51.260;22.558;2024-03-23T01:28:07;30.92;;;15.75;;
34459;SDS011;20704;51.260;22.558;2024-03-23T01:30:08;33.83;;;16.02;;
34459;SDS011;20704;51.260;22.558;2024-03-23T01:32:10;29.50;;;16.15;;
34459;SDS011;20704;51.260;22.558;2024-03-23T01:34:12;28.80;;;15.85;;
34459;SDS011;20704;51.260;22.558;2024-03-23T01:36:14;31.77;;;15.77;;
34459;SDS011;20704;51.260;22.558;2024-03-23T01:38:15;27.63;;;15.95;;
34459;SDS011;20704;51.260;22.558;2024-03-23T01:40:17;28.48;;;15.27;;
34459;SDS011;20704;51.260;22.558;2024-03-23T01:42:19;31.52;;;15.27;;
34459;SDS011;20704;51.260;22.558;2024-03-23T01:44:21;26.60;;;14.57;;
34459;SDS011;20704;51.260;22.558;2024-03-23T01:46:23;28.73;;;15.45;;
34459;SDS011;20704;51.260;22.558;2024-03-23T01:48:25;24.70;;;15.32;;
34459;SDS011;20704;51.260;22.558;2024-03-23T01:50:26;29.63;;;15.73;;
34459;SDS011;20704;51.260;22.558;2024-03-23T01:52:28;27.98;;;14.43;;
34459;SDS011;20704;51.260;22.558;2024-03-23T01:54:31;26.83;;;14.25;;
34459;SDS011;20704;51.260;22.558;2024-03-23T01:56:33;30.33;;;15.60;;
34459;SDS011;20704;51.260;22.558;2024-03-23T01:58:37;29.67;;;15.10;;
34459;SDS011;20704;51.260;22.558;2024-03-23T02:00:39;34.55;;;15.25;;
34459;SDS011;20704;51.260;22.558;2024-03-23T02:02:46;27.83;;;15.25;;
34459;SDS011;20704;51.260;22.558;2024-03-23T02:04:48;26.83;;;15.48;;
34459;SDS011;20704;51.260;22.558;2024-03-23T02:06:50;30.63;;;16.60;;
34459;SDS011;20704;51.260;22.558;2024-03-23T02:08:51;27.10;;;14.10;;
34459;SDS011;20704;51.260;22.558;2024-03-23T02:10:53;31.02;;;15.25;;
34459;SDS011;20704;51.260;22.558;2024-03-23T02:12:55;31.25;;;15.68;;
34459;SDS011;20704;51.260;22.558;2024-03-23T02:14:56;26.73;;;13.90;;
34459;SDS011;20704;51.260;22.558;2024-03-23T02:16:58;26.90;;;15.68;;
34459;SDS011;20704;51.260;22.558;2024-03-23T02:19:00;26.48;;;14.45;;
34459;SDS011;20704;51.260;22.558;2024-03-23T02:21:02;26.35;;;15.93;;
34459;SDS011;20704;51.260;22.558;2024-03-23T02:23:04;32.13;;;16.73;;
34459;SDS011;20704;51.260;22.558;2024-03-23T02:25:08;26.50;;;14.73;;
34459;SDS011;20704;51.260;22.558;2024-03-23T02:27:11;32.67;;;16.55;;
34459;SDS011;20704;51.260;22.558;2024-03-23T02:29:13;30.30;;;16.50;;
34459;SDS011;20704;51.260;22.558;2024-03-23T02:31:14;26.95;;;15.27;;
34459;SDS011;20704;51.260;22.558;2024-03-23T02:33:16;28.02;;;15.82;;
34459;SDS011;20704;51.260;22.558;2024-03-23T02:35:18;25.70;;;15.40;;
34459;SDS011;20704;51.260;22.558;2024-03-23T02:37:20;29.25;;;15.10;;
34459;SDS011;20704;51.260;22.558;2024-03-23T02:39:21;26.80;;;15.27;;
34459;SDS011;20704;51.260;22.558;2024-03-23T02:41:23;28.13;;;15.65;;
34459;SDS011;20704;51.260;22.558;2024-03-23T02:43:25;24.67;;;15.35;;
34459;SDS011;20704;51.260;22.558;2024-03-23T02:45:26;27.30;;;15.70;;
34459;SDS011;20704;51.260;22.558;2024-03-23T02:47:28;31.05;;;16.58;;
34459;SDS011;20704;51.260;22.558;2024-03-23T02:49:29;28.17;;;15.85;;
34459;SDS011;20704;51.260;22.558;2024-03-23T02:51:31;35.17;;;17.35;;
34459;SDS011;20704;51.260;22.558;2024-03-23T02:53:33;32.40;;;16.02;;
34459;SDS011;20704;51.260;22.558;2024-03-23T02:55:35;30.63;;;17.08;;
34459;SDS011;20704;51.260;22.558;2024-03-23T02:57:36;35.10;;;17.60;;
34459;SDS011;20704;51.260;22.558;2024-03-23T02:59:38;37.10;;;17.15;;
34459;SDS011;20704;51.260;22.558;2024-03-23T03:01:40;30.83;;;16.80;;
34459;SDS011;20704;51.260;22.558;2024-03-23T03:03:42;31.40;;;16.30;;
34459;SDS011;20704;51.260;22.558;2024-03-23T03:05:44;30.80;;;16.70;;
34459;SDS011;20704;51.260;22.558;2024-03-23T03:07:46;31.65;;;18.15;;
34459;SDS011;20704;51.260;22.558;2024-03-23T03:09:47;33.25;;;17.52;;
34459;SDS011;20704;51.260;22.558;2024-03-23T03:11:49;34.03;;;16.98;;
34459;SDS011;20704;51.260;22.558;2024-03-23T03:13:51;30.15;;;17.48;;
34459;SDS011;20704;51.260;22.558;2024-03-23T03:15:53;32.17;;;17.08;;
34459;SDS011;20704;51.260;22.558;2024-03-23T03:17:54;31.75;;;16.88;;
34459;SDS011;20704;51.260;22.558;2024-03-23T03:19:56;34.10;;;18.17;;
34459;SDS011;20704;51.260;22.558;2024-03-23T03:21:58;37.17;;;18.30;;
34459;SDS011;20704;51.260;22.558;2024-03-23T03:24:00;33.33;;;16.83;;
34459;SDS011;20704;51.260;22.558;2024-03-23T03:26:01;33.90;;;17.55;;
34459;SDS011;20704;51.260;22.558;2024-03-23T03:28:03;32.25;;;17.83;;
34459;SDS011;20704;51.260;22.558;2024-03-23T03:30:05;41.25;;;19.25;;
34459;SDS011;20704;51.260;22.558;2024-03-23T03:32:09;37.70;;;19.20;;
34459;SDS011;20704;51.260;22.558;2024-03-23T03:34:10;33.92;;;17.90;;
34459;SDS011;20704;51.260;22.558;2024-03-23T03:36:12;34.20;;;19.25;;
34459;SDS011;20704;51.260;22.558;2024-03-23T03:38:14;37.90;;;20.33;;
34459;SDS011;20704;51.260;22.558;2024-03-23T03:40:16;42.63;;;19.40;;
34459;SDS011;20704;51.260;22.558;2024-03-23T03:42:17;40.67;;;19.42;;
34459;SDS011;20704;51.260;22.558;2024-03-23T03:44:19;37.00;;;19.80;;
34459;SDS011;20704;51.260;22.558;2024-03-23T03:46:21;40.78;;;19.75;;
34459;SDS011;20704;51.260;22.558;2024-03-23T03:48:23;36.03;;;18.92;;
34459;SDS011;20704;51.260;22.558;2024-03-23T03:50:25;37.97;;;19.42;;
34459;SDS011;20704;51.260;22.558;2024-03-23T03:52:27;38.58;;;19.83;;
34459;SDS011;20704;51.260;22.558;2024-03-23T03:54:28;43.17;;;20.33;;
34459;SDS011;20704;51.260;22.558;2024-03-23T03:56:30;34.95;;;19.52;;
34459;SDS011;20704;51.260;22.558;2024-03-23T03:58:31;34.90;;;17.83;;
34459;SDS011;20704;51.260;22.558;2024-03-23T04:00:33;39.95;;;21.63;;
34459;SDS011;20704;51.260;22.558;2024-03-23T04:02:34;42.78;;;20.98;;
34459;SDS011;20704;51.260;22.558;2024-03-23T04:04:36;36.33;;;19.58;;
34459;SDS011;20704;51.260;22.558;2024-03-23T04:06:38;40.08;;;20.90;;
34459;SDS011;20704;51.260;22.558;2024-03-23T04:08:40;38.25;;;20.17;;
34459;SDS011;20704;51.260;22.558;2024-03-23T04:10:41;38.42;;;20.17;;
34459;SDS011;20704;51.260;22.558;2024-03-23T04:12:43;37.67;;;18.90;;
34459;SDS011;20704;51.260;22.558;2024-03-23T04:14:45;35.88;;;20.42;;
34459;SDS011;20704;51.260;22.558;2024-03-23T04:16:47;40.83;;;19.77;;
34459;SDS011;20704;51.260;22.558;2024-03-23T04:18:49;39.95;;;19.77;;
34459;SDS011;20704;51.260;22.558;2024-03-23T04:20:51;39.83;;;20.90;;
34459;SDS011;20704;51.260;22.558;2024-03-23T04:22:53;37.70;;;20.02;;
34459;SDS011;20704;51.260;22.558;2024-03-23T04:24:55;36.75;;;18.25;;
34459;SDS011;20704;51.260;22.558;2024-03-23T04:26:57;39.20;;;18.77;;
34459;SDS011;20704;51.260;22.558;2024-03-23T04:28:59;42.58;;;19.70;;
34459;SDS011;20704;51.260;22.558;2024-03-23T04:31:04;36.90;;;19.17;;
34459;SDS011;20704;51.260;22.558;2024-03-23T04:33:06;39.10;;;19.73;;
34459;SDS011;20704;51.260;22.558;2024-03-23T04:35:08;35.10;;;19.13;;
34459;SDS011;20704;51.260;22.558;2024-03-23T04:37:10;37.55;;;19.33;;
34459;SDS011;20704;51.260;22.558;2024-03-23T04:39:12;40.80;;;20.38;;
34459;SDS011;20704;51.260;22.558;2024-03-23T04:41:14;40.55;;;19.60;;
34459;SDS011;20704;51.260;22.558;2024-03-23T04:43:15;40.88;;;20.77;;
34459;SDS011;20704;51.260;22.558;2024-03-23T04:45:17;41.75;;;20.60;;
34459;SDS011;20704;51.260;22.558;2024-03-23T04:47:19;38.78;;;19.98;;
34459;SDS011;20704;51.260;22.558;2024-03-23T04:49:20;36.00;;;19.73;;
34459;SDS011;20704;51.260;22.558;2024-03-23T04:51:23;41.30;;;21.95;;
34459;SDS011;20704;51.260;22.558;2024-03-23T04:53:24;39.92;;;20.48;;
34459;SDS011;20704;51.260;22.558;2024-03-23T04:55:29;39.20;;;20.73;;
34459;SDS011;20704;51.260;22.558;2024-03-23T04:57:31;38.00;;;21.52;;
34459;SDS011;20704;51.260;22.558;2024-03-23T04:59:33;38.38;;;19.60;;
34459;SDS011;20704;51.260;22.558;2024-03-23T05:01:35;43.20;;;23.10;;
34459;SDS011;20704;51.260;22.558;2024-03-23T05:03:39;44.10;;;22.30;;
34459;SDS011;20704;51.260;22.558;2024-03-23T05:05:41;39.80;;;21.80;;
34459;SDS011;20704;51.260;22.558;2024-03-23T05:07:42;43.92;;;22.23;;
34459;SDS011;20704;51.260;22.558;2024-03-23T05:09:44;39.75;;;21.33;;
34459;SDS011;20704;51.260;22.558;2024-03-23T05:11:46;40.67;;;20.63;;
34459;SDS011;20704;51.260;22.558;2024-03-23T05:13:47;46.33;;;22.42;;
34459;SDS011;20704;51.260;22.558;2024-03-23T05:15:52;42.30;;;20.88;;
34459;SDS011;20704;51.260;22.558;2024-03-23T05:17:55;38.20;;;19.65;;
34459;SDS011;20704;51.260;22.558;2024-03-23T05:19:56;40.63;;;20.85;;
34459;SDS011;20704;51.260;22.558;2024-03-23T05:21:58;39.10;;;21.00;;
34459;SDS011;20704;51.260;22.558;2024-03-23T05:24:00;46.22;;;24.00;;
34459;SDS011;20704;51.260;22.558;2024-03-23T05:26:02;41.72;;;21.35;;
34459;SDS011;20704;51.260;22.558;2024-03-23T05:28:04;40.70;;;23.02;;
34459;SDS011;20704;51.260;22.558;2024-03-23T05:30:06;47.15;;;23.08;;
34459;SDS011;20704;51.260;22.558;2024-03-23T05:32:09;48.75;;;24.10;;
34459;SDS011;20704;51.260;22.558;2024-03-23T05:34:11;45.78;;;22.48;;
34459;SDS011;20704;51.260;22.558;2024-03-23T05:36:13;44.67;;;22.15;;
34459;SDS011;20704;51.260;22.558;2024-03-23T05:38:14;43.55;;;22.33;;
34459;SDS011;20704;51.260;22.558;2024-03-23T05:40:16;44.08;;;22.35;;
34459;SDS011;20704;51.260;22.558;2024-03-23T05:42:18;40.85;;;21.60;;
34459;SDS011;20704;51.260;22.558;2024-03-23T05:44:20;43.63;;;22.02;;
34459;SDS011;20704;51.260;22.558;2024-03-23T05:46:21;43.40;;;21.63;;
34459;SDS011;20704;51.260;22.558;2024-03-23T05:48:23;42.75;;;20.60;;
34459;SDS011;20704;51.260;22.558;2024-03-23T05:50:25;39.55;;;20.55;;
34459;SDS011;20704;51.260;22.558;2024-03-23T05:52:27;46.33;;;21.90;;
34459;SDS011;20704;51.260;22.558;2024-03-23T05:54:29;41.35;;;19.02;;
34459;SDS011;20704;51.260;22.558;2024-03-23T05:56:31;35.55;;;18.02;;
34459;SDS011;20704;51.260;22.558;2024-03-23T05:58:33;36.00;;;17.75;;
34459;SDS011;20704;51.260;22.558;2024-03-23T06:00:34;39.15;;;19.50;;
34459;SDS011;20704;51.260;22.558;2024-03-23T06:02:36;39.00;;;20.30;;
34459;SDS011;20704;51.260;22.558;2024-03-23T06:04:38;40.65;;;21.20;;
34459;SDS011;20704;51.260;22.558;2024-03-23T06:06:39;35.00;;;18.38;;
34459;SDS011;20704;51.260;22.558;2024-03-23T06:08:41;41.25;;;18.92;;
34459;SDS011;20704;51.260;22.558;2024-03-23T06:10:43;37.70;;;19.70;;
34459;SDS011;20704;51.260;22.558;2024-03-23T06:12:47;38.22;;;20.27;;
34459;SDS011;20704;51.260;22.558;2024-03-23T06:14:49;41.05;;;19.15;;
34459;SDS011;20704;51.260;22.558;2024-03-23T06:16:51;42.55;;;18.70;;
34459;SDS011;20704;51.260;22.558;2024-03-23T06:18:54;36.72;;;20.55;;
34459;SDS011;20704;51.260;22.558;2024-03-23T06:20:55;35.35;;;18.80;;
34459;SDS011;20704;51.260;22.558;2024-03-23T06:22:58;34.80;;;18.73;;
34459;SDS011;20704;51.260;22.558;2024-03-23T06:24:59;36.88;;;18.73;;
34459;SDS011;20704;51.260;22.558;2024-03-23T06:27:01;34.50;;;18.23;;
34459;SDS011;20704;51.260;22.558;2024-03-23T06:29:03;39.42;;;19.20;;
34459;SDS011;20704;51.260;22.558;2024-03-23T06:31:08;39.65;;;19.02;;
34459;SDS011;20704;51.260;22.558;2024-03-23T06:33:10;39.55;;;20.73;;
34459;SDS011;20704;51.260;22.558;2024-03-23T06:35:12;38.75;;;19.60;;
34459;SDS011;20704;51.260;22.558;2024-03-23T06:37:13;38.10;;;19.65;;
34459;SDS011;20704;51.260;22.558;2024-03-23T06:39:16;40.30;;;20.15;;
34459;SDS011;20704;51.260;22.558;2024-03-23T06:41:17;38.28;;;18.77;;
34459;SDS011;20704;51.260;22.558;2024-03-23T06:43:19;37.88;;;19.42;;
34459;SDS011;20704;51.260;22.558;2024-03-23T06:45:21;37.75;;;18.83;;
34459;SDS011;20704;51.260;22.558;2024-03-23T06:47:24;45.75;;;20.40;;
34459;SDS011;20704;51.260;22.558;2024-03-23T06:49:26;35.53;;;18.58;;
34459;SDS011;20704;51.260;22.558;2024-03-23T06:51:28;32.80;;;17.05;;
34459;SDS011;20704;51.260;22.558;2024-03-23T06:53:30;36.03;;;19.67;;
34459;SDS011;20704;51.260;22.558;2024-03-23T06:55:31;36.55;;;19.23;;
34459;SDS011;20704;51.260;22.558;2024-03-23T06:57:33;33.13;;;17.20;;
34459;SDS011;20704;51.260;22.558;2024-03-23T06:59:35;31.00;;;16.10;;
34459;SDS011;20704;51.260;22.558;2024-03-23T07:01:37;29.20;;;16.42;;
34459;SDS011;20704;51.260;22.558;2024-03-23T07:03:38;30.77;;;16.05;;
34459;SDS011;20704;51.260;22.558;2024-03-23T07:05:40;28.40;;;14.40;;
34459;SDS011;20704;51.260;22.558;2024-03-23T07:07:43;27.85;;;15.88;;
34459;SDS011;20704;51.260;22.558;2024-03-23T07:09:44;25.05;;;14.35;;
34459;SDS011;20704;51.260;22.558;2024-03-23T07:11:46;26.92;;;13.73;;
34459;SDS011;20704;51.260;22.558;2024-03-23T07:13:51;26.98;;;14.85;;
34459;SDS011;20704;51.260;22.558;2024-03-23T07:15:55;22.65;;;13.48;;
34459;SDS011;20704;51.260;22.558;2024-03-23T07:17:57;25.08;;;13.35;;
34459;SDS011;20704;51.260;22.558;2024-03-23T07:19:59;22.65;;;11.95;;
34459;SDS011;20704;51.260;22.558;2024-03-23T07:22:02;23.33;;;11.43;;
34459;SDS011;20704;51.260;22.558;2024-03-23T07:24:04;24.98;;;12.23;;
34459;SDS011;20704;51.260;22.558;2024-03-23T07:26:05;25.58;;;11.75;;
34459;SDS011;20704;51.260;22.558;2024-03-23T07:28:08;22.05;;;11.60;;
34459;SDS011;20704;51.260;22.558;2024-03-23T07:30:11;22.75;;;11.48;;
34459;SDS011;20704;51.260;22.558;2024-03-23T07:32:12;25.20;;;11.48;;
34459;SDS011;20704;51.260;22.558;2024-03-23T07:34:14;27.52;;;11.48;;
34459;SDS011;20704;51.260;22.558;2024-03-23T07:36:16;23.33;;;12.05;;
34459;SDS011;20704;51.260;22.558;2024-03-23T07:38:17;22.83;;;12.02;;
34459;SDS011;20704;51.260;22.558;2024-03-23T07:40:19;18.10;;;10.07;;
34459;SDS011;20704;51.260;22.558;2024-03-23T07:42:21;18.55;;;10.90;;
34459;SDS011;20704;51.260;22.558;2024-03-23T07:44:23;21.88;;;11.10;;
34459;SDS011;20704;51.260;22.558;2024-03-23T07:46:24;24.05;;;11.80;;
34459;SDS011;20704;51.260;22.558;2024-03-23T07:48:27;20.80;;;10.60;;
34459;SDS011;20704;51.260;22.558;2024-03-23T07:50:28;20.00;;;10.15;;
34459;SDS011;20704;51.260;22.558;2024-03-23T07:52:30;29.63;;;11.70;;
34459;SDS011;20704;51.260;22.558;2024-03-23T07:54:32;17.85;;;9.98;;
34459;SDS011;20704;51.260;22.558;2024-03-23T07:56:34;23.00;;;11.73;;
34459;SDS011;20704;51.260;22.558;2024-03-23T07:58:36;19.88;;;10.90;;
34459;SDS011;20704;51.260;22.558;2024-03-23T08:00:38;24.33;;;12.25;;
34459;SDS011;20704;51.260;22.558;2024-03-23T08:02:39;18.38;;;9.70;;
34459;SDS011;20704;51.260;22.558;2024-03-23T08:04:41;21.48;;;11.18;;
34459;SDS011;20704;51.260;22.558;2024-03-23T08:06:43;22.95;;;11.00;;
34459;SDS011;20704;51.260;22.558;2024-03-23T08:08:45;18.95;;;11.60;;
34459;SDS011;20704;51.260;22.558;2024-03-23T08:10:51;21.48;;;12.00;;
34459;SDS011;20704;51.260;22.558;2024-03-23T08:12:54;28.10;;;11.13;;
34459;SDS011;20704;51.260;22.558;2024-03-23T08:14:55;23.92;;;11.48;;
34459;SDS011;20704;51.260;22.558;2024-03-23T08:16:57;22.63;;;11.20;;
34459;SDS011;20704;51.260;22.558;2024-03-23T08:18:59;20.80;;;10.93;;
34459;SDS011;20704;51.260;22.558;2024-03-23T08:21:04;19.77;;;11.18;;
34459;SDS011;20704;51.260;22.558;2024-03-23T08:23:06;21.05;;;11.55;;
34459;SDS011;20704;51.260;22.558;2024-03-23T08:25:09;22.70;;;12.70;;
34459;SDS011;20704;51.260;22.558;2024-03-23T08:27:10;23.10;;;12.50;;
34459;SDS011;20704;51.260;22.558;2024-03-23T08:29:12;27.65;;;12.52;;
34459;SDS011;20704;51.260;22.558;2024-03-23T08:31:14;24.70;;;11.75;;
34459;SDS011;20704;51.260;22.558;2024-03-23T08:33:18;22.15;;;11.75;;
34459;SDS011;20704;51.260;22.558;2024-03-23T08:35:20;22.13;;;11.85;;
34459;SDS011;20704;51.260;22.558;2024-03-23T08:37:22;24.95;;;12.98;;
34459;SDS011;20704;51.260;22.558;2024-03-23T08:39:25;20.65;;;11.32;;
34459;SDS011;20704;51.260;22.558;2024-03-23T08:41:27;23.25;;;11.60;;
34459;SDS011;20704;51.260;22.558;2024-03-23T08:43:29;22.98;;;11.52;;
34459;SDS011;20704;51.260;22.558;2024-03-23T08:45:31;19.00;;;11.18;;
34459;SDS011;20704;51.260;22.558;2024-03-23T08:47:36;23.85;;;12.00;;
34459;SDS011;20704;51.260;22.558;2024-03-23T08:49:39;19.92;;;10.95;;
34459;SDS011;20704;51.260;22.558;2024-03-23T08:51:40;22.13;;;11.52;;
34459;SDS011;20704;51.260;22.558;2024-03-23T08:53:42;20.98;;;11.93;;
34459;SDS011;20704;51.260;22.558;2024-03-23T08:55:52;19.73;;;10.98;;
34459;SDS011;20704;51.260;22.558;2024-03-23T08:58:06;23.15;;;12.10;;
34459;SDS011;20704;51.260;22.558;2024-03-23T09:00:18;19.67;;;11.32;;
34459;SDS011;20704;51.260;22.558;2024-03-23T09:02:20;21.52;;;10.80;;
34459;SDS011;20704;51.260;22.558;2024-03-23T09:04:22;17.38;;;10.45;;
34459;SDS011;20704;51.260;22.558;2024-03-23T09:06:24;25.63;;;12.18;;
34459;SDS011;20704;51.260;22.558;2024-03-23T09:08:27;21.85;;;11.40;;
34459;SDS011;20704;51.260;22.558;2024-03-23T09:10:30;17.85;;;10.20;;
34459;SDS011;20704;51.260;22.558;2024-03-23T09:12:31;22.42;;;11.77;;
34459;SDS011;20704;51.260;22.558;2024-03-23T09:14:33;20.40;;;11.15;;
34459;SDS011;20704;51.260;22.558;2024-03-23T09:16:35;23.38;;;11.20;;
34459;SDS011;20704;51.260;22.558;2024-03-23T09:18:37;17.45;;;9.70;;
34459;SDS011;20704;51.260;22.558;2024-03-23T09:20:40;20.63;;;10.55;;
34459;SDS011;20704;51.260;22.558;2024-03-23T09:22:42;22.30;;;10.65;;
34459;SDS011;20704;51.260;22.558;2024-03-23T09:24:43;20.23;;;10.50;;
34459;SDS011;20704;51.260;22.558;2024-03-23T09:26:45;19.75;;;9.73;;
34459;SDS011;20704;51.260;22.558;2024-03-23T09:28:50;20.15;;;10.68;;
34459;SDS011;20704;51.260;22.558;2024-03-23T09:30:51;16.63;;;8.73;;
34459;SDS011;20704;51.260;22.558;2024-03-23T09:32:57;17.05;;;9.45;;
34459;SDS011;20704;51.260;22.558;2024-03-23T09:34:59;18.45;;;9.48;;
34459;SDS011;20704;51.260;22.558;2024-03-23T09:37:01;15.40;;;8.80;;
34459;SDS011;20704;51.260;22.558;2024-03-23T09:39:06;17.42;;;8.63;;
34459;SDS011;20704;51.260;22.558;2024-03-23T09:41:15;22.90;;;9.70;;
34459;SDS011;20704;51.260;22.558;2024-03-23T09:43:17;18.48;;;9.02;;
34459;SDS011;20704;51.260;22.558;2024-03-23T09:45:26;18.73;;;9.27;;
34459;SDS011;20704;51.260;22.558;2024-03-23T09:47:32;17.40;;;8.82;;
34459;SDS011;20704;51.260;22.558;2024-03-23T09:49:34;18.15;;;9.00;;
34459;SDS011;20704;51.260;22.558;2024-03-23T09:51:45;15.27;;;7.93;;
34459;SDS011;20704;51.260;22.558;2024-03-23T09:53:49;15.88;;;8.32;;
34459;SDS011;20704;51.260;22.558;2024-03-23T09:55:53;15.45;;;8.52;;
34459;SDS011;20704;51.260;22.558;2024-03-23T10:00:22;15.48;;;8.48;;
34459;SDS011;20704;51.260;22.558;2024-03-23T10:04:39;19.83;;;9.15;;
34459;SDS011;20704;51.260;22.558;2024-03-23T10:06:42;16.80;;;9.43;;
34459;SDS011;20704;51.260;22.558;2024-03-23T10:08:45;17.35;;;9.35;;
34459;SDS011;20704;51.260;22.558;2024-03-23T10:11:13;15.82;;;9.35;;
34459;SDS011;20704;51.260;22.558;2024-03-23T10:13:28;16.63;;;9.57;;
34459;SDS011;20704;51.260;22.558;2024-03-23T10:15:30;16.80;;;8.43;;
34459;SDS011;20704;51.260;22.558;2024-03-23T10:17:35;17.65;;;9.65;;
34459;SDS011;20704;51.260;22.558;2024-03-23T10:19:38;14.93;;;9.25;;
34459;SDS011;20704;51.260;22.558;2024-03-23T10:21:42;14.90;;;8.27;;
34459;SDS011;20704;51.260;22.558;2024-03-23T10:23:53;15.90;;;8.80;;
34459;SDS011;20704;51.260;22.558;2024-03-23T10:25:55;19.08;;;8.00;;
34459;SDS011;20704;51.260;22.558;2024-03-23T10:28:00;17.38;;;9.60;;
34459;SDS011;20704;51.260;22.558;2024-03-23T10:30:09;16.30;;;9.68;;
34459;SDS011;20704;51.260;22.558;2024-03-23T10:32:18;15.60;;;9.38;;
34459;SDS011;20704;51.260;22.558;2024-03-23T10:34:25;17.10;;;8.88;;
34459;SDS011;20704;51.260;22.558;2024-03-23T10:36:27;14.60;;;9.57;;
34459;SDS011;20704;51.260;22.558;2024-03-23T10:38:29;15.15;;;7.65;;
34459;SDS011;20704;51.260;22.558;2024-03-23T10:40:31;16.05;;;8.35;;
34459;SDS011;20704;51.260;22.558;2024-03-23T10:42:35;13.20;;;7.72;;
34459;SDS011;20704;51.260;22.558;2024-03-23T10:44:38;15.25;;;8.45;;
34459;SDS011;20704;51.260;22.558;2024-03-23T10:46:40;13.40;;;9.23;;
34459;SDS011;20704;51.260;22.558;2024-03-23T10:48:41;13.38;;;8.70;;
34459;SDS011;20704;51.260;22.558;2024-03-23T10:50:44;13.82;;;8.18;;
34459;SDS011;20704;51.260;22.558;2024-03-23T10:52:46;13.57;;;7.47;;
34459;SDS011;20704;51.260;22.558;2024-03-23T10:54:51;11.52;;;7.55;;
34459;SDS011;20704;51.260;22.558;2024-03-23T10:56:56;14.38;;;7.47;;
34459;SDS011;20704;51.260;22.558;2024-03-23T10:59:05;13.70;;;7.15;;
34459;SDS011;20704;51.260;22.558;2024-03-23T11:01:12;12.25;;;8.02;;
34459;SDS011;20704;51.260;22.558;2024-03-23T11:08:06;11.60;;;6.68;;
34459;SDS011;20704;51.260;22.558;2024-03-23T11:10:24;13.18;;;7.13;;
34459;SDS011;20704;51.260;22.558;2024-03-23T11:12:30;17.23;;;8.15;;
34459;SDS011;20704;51.260;22.558;2024-03-23T11:14:34;14.48;;;8.23;;
34459;SDS011;20704;51.260;22.558;2024-03-23T11:16:36;12.05;;;7.70;;
34459;SDS011;20704;51.260;22.558;2024-03-23T11:18:40;15.43;;;8.63;;
34459;SDS011;20704;51.260;22.558;2024-03-23T11:20:42;11.10;;;6.55;;
34459;SDS011;20704;51.260;22.558;2024-03-23T11:22:44;12.57;;;6.85;;
34459;SDS011;20704;51.260;22.558;2024-03-23T11:24:50;10.80;;;7.07;;
34459;SDS011;20704;51.260;22.558;2024-03-23T11:26:54;12.25;;;7.10;;
34459;SDS011;20704;51.260;22.558;2024-03-23T11:29:29;12.02;;;7.63;;
34459;SDS011;20704;51.260;22.558;2024-03-23T11:31:23;12.25;;;6.65;;
34459;SDS011;20704;51.260;22.558;2024-03-23T11:33:25;12.70;;;8.20;;
34459;SDS011;20704;51.260;22.558;2024-03-23T11:35:33;14.70;;;8.13;;
34459;SDS011;20704;51.260;22.558;2024-03-23T11:37:36;11.85;;;7.30;;
34459;SDS011;20704;51.260;22.558;2024-03-23T11:39:39;12.48;;;6.97;;
34459;SDS011;20704;51.260;22.558;2024-03-23T11:41:54;14.57;;;8.55;;
34459;SDS011;20704;51.260;22.558;2024-03-23T11:43:58;12.45;;;6.35;;
34459;SDS011;20704;51.260;22.558;2024-03-23T11:46:21;11.00;;;6.97;;
34459;SDS011;20704;51.260;22.558;2024-03-23T11:48:23;13.93;;;7.57;;
34459;SDS011;20704;51.260;22.558;2024-03-23T11:50:26;15.20;;;7.22;;
34459;SDS011;20704;51.260;22.558;2024-03-23T11:52:28;11.45;;;6.75;;
34459;SDS011;20704;51.260;22.558;2024-03-23T11:54:29;11.18;;;6.55;;
34459;SDS011;20704;51.260;22.558;2024-03-23T11:56:31;11.10;;;6.93;;
34459;SDS011;20704;51.260;22.558;2024-03-23T11:58:34;11.13;;;7.15;;
34459;SDS011;20704;51.260;22.558;2024-03-23T12:00:36;11.90;;;7.47;;
34459;SDS011;20704;51.260;22.558;2024-03-23T12:02:40;12.82;;;7.53;;
34459;SDS011;20704;51.260;22.558;2024-03-23T12:04:42;12.88;;;7.32;;
34459;SDS011;20704;51.260;22.558;2024-03-23T12:06:44;10.82;;;7.43;;
34459;SDS011;20704;51.260;22.558;2024-03-23T12:08:45;11.38;;;6.85;;
34459;SDS011;20704;51.260;22.558;2024-03-23T12:10:49;14.57;;;6.75;;
34459;SDS011;20704;51.260;22.558;2024-03-23T12:12:59;13.18;;;6.43;;
34459;SDS011;20704;51.260;22.558;2024-03-23T12:15:02;11.05;;;6.13;;
34459;SDS011;20704;51.260;22.558;2024-03-23T12:17:08;12.27;;;7.10;;
34459;SDS011;20704;51.260;22.558;2024-03-23T12:19:13;11.00;;;6.30;;
34459;SDS011;20704;51.260;22.558;2024-03-23T12:21:15;9.70;;;6.57;;
34459;SDS011;20704;51.260;22.558;2024-03-23T12:23:18;8.30;;;5.93;;
34459;SDS011;20704;51.260;22.558;2024-03-23T12:25:24;9.57;;;6.28;;
34459;SDS011;20704;51.260;22.558;2024-03-23T12:27:35;8.98;;;5.75;;
34459;SDS011;20704;51.260;22.558;2024-03-23T12:29:46;11.10;;;7.03;;
34459;SDS011;20704;51.260;22.558;2024-03-23T12:31:47;14.15;;;6.82;;
34459;SDS011;20704;51.260;22.558;2024-03-23T12:33:50;10.23;;;6.55;;
34459;SDS011;20704;51.260;22.558;2024-03-23T12:35:52;9.80;;;6.10;;
34459;SDS011;20704;51.260;22.558;2024-03-23T12:37:59;10.15;;;6.60;;
34459;SDS011;20704;51.260;22.558;2024-03-23T12:40:00;9.40;;;6.00;;
34459;SDS011;20704;51.260;22.558;2024-03-23T12:42:03;10.88;;;6.22;;
34459;SDS011;20704;51.260;22.558;2024-03-23T12:44:04;10.48;;;6.45;;
34459;SDS011;20704;51.260;22.558;2024-03-23T12:46:09;11.95;;;6.65;;
34459;SDS011;20704;51.260;22.558;2024-03-23T12:48:12;9.88;;;6.55;;
34459;SDS011;20704;51.260;22.558;2024-03-23T12:50:15;12.25;;;6.47;;
34459;SDS011;20704;51.260;22.558;2024-03-23T12:52:18;14.98;;;6.10;;
34459;SDS011;20704;51.260;22.558;2024-03-23T12:54:24;36.33;;;8.65;;
34459;SDS011;20704;51.260;22.558;2024-03-23T12:56:29;10.50;;;6.30;;